Iberia, Missouri
Current Conditions -  °F | °C
As of 7:35 AM on Saturday 25 Oct 2014 (Local Time) from KAIZ Reporting Station
Clear Clear  
Wind Chill: 57°   Ceiling: Unl
Heat Index: 57°   Visibility: 3mi
Dew Point: 54°   Wind: 5mph
Humidity: 88%   Direction: 270°W
Pressure: 30.05"   Gusts: NA
Location:  38.09°N, 92.29°W
Report Text: KAIZ 251235Z AUTO 27004KT 3SM CLR 14/12 A3005 RMK AO1
Loading
Personal Weather Stations






























Interactive Weather Map
Tropical Storm Tracking
New forecast layout! Learn more

10-Day Weather Forecast

Advertisements
Track Severe Weather on mobile